createdAt,value
2019-04-04T00:01:47.919Z,6.60
2019-04-04T00:04:15.195Z,6.57
2019-04-04T00:06:43.654Z,6.13
2019-04-04T00:09:12.334Z,5.93
2019-04-04T00:11:40.762Z,7.00
2019-04-04T00:14:09.164Z,7.20
2019-04-04T00:16:37.593Z,6.80
2019-04-04T00:19:06.068Z,7.37
2019-04-04T00:21:34.636Z,8.00
2019-04-04T00:24:03.171Z,8.17
2019-04-04T00:26:31.583Z,8.30
2019-04-04T00:29:01.359Z,7.73
2019-04-04T00:31:30.197Z,8.10
2019-04-04T00:33:58.613Z,8.67
2019-04-04T00:36:27.063Z,8.30
2019-04-04T00:38:55.470Z,8.40
2019-04-04T00:41:23.888Z,8.53
2019-04-04T00:43:52.616Z,8.43
2019-04-04T00:46:21.038Z,9.00
2019-04-04T00:48:49.613Z,7.87
2019-04-04T00:51:18.030Z,8.50
2019-04-04T00:53:46.441Z,9.63
2019-04-04T00:56:16.077Z,9.00
2019-04-04T00:58:44.986Z,9.73
2019-04-04T01:01:13.418Z,9.60
2019-04-04T01:03:42.099Z,10.93
2019-04-04T01:06:10.527Z,10.93
2019-04-04T01:08:39.114Z,11.47
2019-04-04T01:11:07.857Z,11.53
2019-04-04T01:13:36.266Z,10.83
2019-04-04T01:16:04.962Z,10.17
2019-04-04T01:18:34.971Z,10.03
2019-04-04T01:21:03.501Z,9.80
2019-04-04T01:23:31.916Z,9.73
2019-04-04T01:26:01.358Z,9.17
2019-04-04T01:28:30.534Z,9.10
2019-04-04T01:30:59.259Z,10.03
2019-04-04T01:33:27.675Z,10.20
2019-04-04T01:35:56.095Z,10.23
2019-04-04T01:38:24.515Z,10.67
2019-04-04T01:40:55.011Z,11.53
2019-04-04T01:43:23.075Z,11.27
2019-04-04T01:45:51.581Z,11.07
2019-04-04T01:48:25.968Z,11.17
2019-04-04T01:50:54.392Z,11.63
2019-04-04T01:53:22.808Z,11.50
2019-04-04T01:55:51.215Z,11.27
2019-04-04T01:58:19.636Z,10.93
2019-04-04T02:00:48.052Z,10.90
2019-04-04T02:03:16.473Z,11.00
2019-04-04T02:05:44.885Z,10.97
2019-04-04T02:08:13.297Z,10.63
2019-04-04T02:10:41.997Z,11.40
2019-04-04T02:13:10.521Z,10.50
2019-04-04T02:15:39.207Z,10.80
2019-04-04T02:18:07.629Z,10.90
2019-04-04T02:20:36.332Z,10.73
2019-04-04T02:23:04.753Z,10.67
2019-04-04T02:25:34.161Z,11.00
2019-04-04T02:28:03.377Z,10.30
2019-04-04T02:30:31.803Z,10.80
2019-04-04T02:33:00.728Z,10.43
2019-04-04T02:35:29.414Z,9.83
2019-04-04T02:37:58.017Z,9.67
2019-04-04T02:40:26.817Z,10.00
2019-04-04T02:42:55.688Z,10.30
2019-04-04T02:45:24.321Z,10.93
2019-04-04T02:47:52.741Z,10.30
2019-04-04T02:50:21.156Z,10.07
2019-04-04T02:52:49.574Z,9.87
2019-04-04T02:55:17.981Z,9.63
2019-04-04T02:57:46.400Z,9.70
2019-04-04T03:00:15.604Z,9.90
2019-04-04T03:02:44.384Z,9.63
2019-04-04T03:05:12.793Z,9.57
2019-04-04T03:07:41.199Z,9.77
2019-04-04T03:10:10.065Z,9.00
2019-04-04T03:12:38.463Z,9.10
2019-04-04T03:15:09.180Z,8.87
2019-04-04T03:17:38.153Z,8.83
2019-04-04T03:20:07.395Z,9.20
2019-04-04T03:22:35.817Z,9.37
2019-04-04T03:25:05.064Z,9.50
2019-04-04T03:27:33.775Z,10.27
2019-04-04T03:30:02.188Z,10.20
2019-04-04T03:32:30.609Z,9.47
2019-04-04T03:34:59.331Z,9.07
2019-04-04T03:37:27.749Z,9.00
2019-04-04T03:39:56.189Z,8.77
2019-04-04T03:42:24.597Z,9.10
2019-04-04T03:44:54.370Z,9.50
2019-04-04T03:47:23.151Z,8.60
2019-04-04T03:49:56.493Z,8.20
2019-04-04T03:52:21.718Z,8.37
2019-04-04T03:54:54.896Z,7.80
2019-04-04T03:57:20.378Z,8.60
2019-04-04T03:59:48.785Z,8.67
2019-04-04T04:02:18.604Z,9.20
2019-04-04T04:04:47.273Z,7.97
2019-04-04T04:07:15.695Z,8.20
2019-04-04T04:09:44.106Z,9.23
2019-04-04T04:12:12.863Z,7.63
2019-04-04T04:14:41.281Z,7.07
2019-04-04T04:17:11.585Z,7.90
2019-04-04T04:19:39.829Z,7.40
2019-04-04T04:22:08.226Z,7.90
2019-04-04T04:24:36.723Z,7.63
2019-04-04T04:27:05.219Z,7.40
2019-04-04T04:29:33.633Z,7.43
2019-04-04T04:32:02.045Z,7.90
2019-04-04T04:34:33.951Z,7.93
2019-04-04T04:37:00.653Z,8.77
2019-04-04T04:39:36.055Z,8.47
2019-04-04T04:42:01.936Z,8.00
2019-04-04T04:44:30.442Z,8.37
2019-04-04T04:46:58.848Z,8.87
2019-04-04T04:49:27.257Z,8.97
2019-04-04T04:51:55.687Z,9.37
2019-04-04T04:54:24.929Z,8.73
2019-04-04T04:56:53.405Z,8.50
2019-04-04T04:59:21.817Z,8.97
2019-04-04T05:01:51.182Z,9.43
2019-04-04T05:04:19.836Z,8.90
2019-04-04T05:06:48.406Z,9.40
2019-04-04T05:09:16.826Z,9.73
2019-04-04T05:11:45.229Z,10.10
2019-04-04T05:14:13.742Z,10.13
2019-04-04T05:16:42.450Z,10.67
2019-04-04T05:19:10.883Z,10.50
2019-04-04T05:21:39.653Z,10.87
2019-04-04T05:24:08.114Z,9.87
2019-04-04T05:26:38.562Z,10.07
2019-04-04T05:29:06.693Z,9.87
2019-04-04T05:31:35.135Z,9.27
2019-04-04T05:34:04.082Z,9.30
2019-04-04T05:36:36.044Z,10.03
2019-04-04T05:39:03.380Z,9.70
2019-04-04T05:41:31.791Z,8.93
2019-04-04T05:44:00.211Z,9.93
2019-04-04T05:46:28.626Z,10.20
2019-04-04T05:48:57.674Z,9.93
2019-04-04T05:51:27.173Z,9.90
2019-04-04T05:53:55.614Z,9.77
2019-04-04T05:56:24.399Z,9.83
2019-04-04T05:58:53.771Z,9.87
2019-04-04T06:01:23.075Z,10.37
2019-04-04T06:03:51.504Z,10.70
2019-04-04T06:06:19.993Z,10.87
2019-04-04T06:08:48.720Z,9.80
2019-04-04T06:11:17.134Z,11.67
2019-04-04T06:13:45.558Z,12.93
2019-04-04T06:16:13.974Z,12.07
2019-04-04T06:18:42.976Z,12.20
2019-04-04T06:21:12.284Z,11.63
2019-04-04T06:23:40.702Z,12.70
2019-04-04T06:26:09.141Z,12.63
2019-04-04T06:28:37.588Z,13.37
2019-04-04T06:31:06.358Z,13.30
2019-04-04T06:33:35.293Z,13.87
2019-04-04T06:36:04.749Z,13.33
2019-04-04T06:38:33.158Z,13.90
2019-04-04T06:41:01.597Z,13.43
2019-04-04T06:43:31.291Z,13.13
2019-04-04T06:45:59.674Z,14.10
2019-04-04T06:48:33.515Z,14.63
2019-04-04T06:51:00.966Z,14.97
2019-04-04T06:53:29.443Z,16.77
2019-04-04T06:56:00.399Z,16.03
2019-04-04T06:58:28.725Z,15.67
2019-04-04T07:01:00.245Z,16.17
2019-04-04T07:03:39.197Z,16.13
2019-04-04T07:12:42.667Z,15.73
2019-04-04T07:15:15.559Z,16.80
2019-04-04T07:17:42.138Z,17.20
2019-04-04T07:20:12.395Z,15.83
2019-04-04T07:22:41.093Z,16.80
2019-04-04T07:25:10.022Z,16.03
2019-04-04T07:27:38.462Z,13.90
2019-04-04T07:30:09.514Z,12.30
2019-04-04T07:32:40.847Z,13.70
2019-04-04T07:35:09.375Z,11.40
2019-04-04T07:37:37.874Z,9.37
2019-04-04T07:40:07.034Z,8.40
2019-04-04T07:42:35.453Z,9.20
2019-04-04T07:45:07.158Z,7.20
2019-04-04T07:47:35.576Z,8.13
2019-04-04T07:50:05.733Z,7.00
2019-04-04T07:52:34.174Z,7.17
2019-04-04T07:55:02.580Z,6.97
2019-04-04T07:57:30.991Z,7.00
2019-04-04T08:00:00.395Z,6.93
2019-04-04T08:02:28.802Z,6.67
2019-04-04T08:04:57.228Z,6.10
2019-04-04T08:07:25.636Z,6.80
2019-04-04T08:09:54.053Z,6.80
2019-04-04T08:12:22.490Z,5.63
2019-04-04T08:14:50.899Z,6.27
2019-04-04T08:17:19.322Z,5.80
2019-04-04T08:19:59.134Z,5.30
2019-04-04T08:22:18.320Z,6.37
2019-04-04T08:24:47.020Z,5.97
2019-04-04T08:27:15.429Z,4.60
2019-04-04T08:29:44.165Z,4.37
2019-04-04T08:32:12.605Z,5.20
2019-04-04T08:34:41.062Z,4.70
2019-04-04T08:37:09.812Z,4.60
2019-04-04T08:39:38.499Z,4.27
2019-04-04T08:42:06.925Z,4.47
2019-04-04T08:44:35.316Z,4.90
2019-04-04T08:47:13.810Z,4.47
2019-04-04T08:49:42.228Z,4.43
2019-04-04T08:52:16.578Z,4.17
2019-04-04T08:54:40.775Z,3.90
2019-04-04T08:57:09.190Z,4.13
2019-04-04T08:59:37.602Z,3.83
2019-04-04T09:02:06.181Z,3.73
2019-04-04T09:04:34.597Z,3.73
2019-04-04T09:07:03.061Z,3.97
2019-04-04T09:09:34.498Z,3.50
2019-04-04T09:12:01.970Z,3.37
2019-04-04T09:14:30.383Z,4.17
2019-04-04T09:16:58.812Z,3.60
2019-04-04T09:19:27.211Z,3.07
2019-04-04T09:21:55.619Z,3.30
2019-04-04T09:24:24.034Z,2.93
2019-04-04T09:26:52.438Z,3.47
2019-04-04T09:29:20.861Z,3.20
2019-04-04T09:31:49.681Z,3.63
2019-04-04T09:34:18.106Z,3.00
2019-04-04T09:36:46.506Z,2.73
2019-04-04T09:39:14.923Z,3.10
2019-04-04T09:41:43.330Z,2.90
2019-04-04T09:44:11.751Z,2.90
2019-04-04T09:46:40.155Z,2.80
2019-04-04T09:49:08.577Z,3.13
2019-04-04T09:51:37.057Z,3.37
2019-04-04T09:54:05.741Z,2.90
2019-04-04T09:56:34.154Z,2.80
2019-04-04T09:59:02.606Z,2.87
2019-04-04T10:01:31.066Z,2.77
2019-04-04T10:03:59.482Z,2.50
2019-04-04T10:06:27.906Z,2.53
2019-04-04T10:08:56.331Z,2.67
2019-04-04T10:11:24.737Z,2.70
2019-04-04T10:13:53.157Z,2.20
2019-04-04T10:16:21.592Z,2.47
2019-04-04T10:18:49.990Z,2.60
2019-04-04T10:21:18.399Z,3.07
2019-04-04T10:23:46.814Z,2.47
2019-04-04T10:26:15.224Z,2.93
2019-04-04T10:28:43.641Z,3.23
2019-04-04T10:31:12.045Z,2.70
2019-04-04T10:33:42.259Z,2.93
2019-04-04T10:36:10.603Z,2.50
2019-04-04T10:38:39.022Z,2.00
2019-04-04T10:41:07.441Z,2.40
2019-04-04T10:43:35.904Z,2.57
2019-04-04T10:46:04.314Z,2.57
2019-04-04T10:48:32.730Z,1.90
2019-04-04T10:51:01.435Z,2.50
2019-04-04T10:53:29.857Z,2.50
2019-04-04T10:55:58.268Z,2.40
2019-04-04T10:58:26.857Z,2.30
2019-04-04T11:00:55.269Z,2.33
2019-04-04T11:03:23.690Z,2.37
2019-04-04T11:05:52.108Z,2.07
2019-04-04T11:08:20.533Z,1.83
2019-04-04T11:10:48.951Z,2.17
2019-04-04T11:13:17.378Z,1.80
2019-04-04T11:15:46.128Z,1.50
2019-04-04T11:18:14.540Z,1.57
2019-04-04T11:20:42.946Z,1.10
2019-04-04T11:23:11.374Z,1.30
2019-04-04T11:25:39.789Z,1.20
2019-04-04T11:28:08.206Z,1.30
2019-04-04T11:30:36.633Z,1.37
2019-04-04T11:33:05.071Z,1.47
2019-04-04T11:35:33.763Z,1.30
2019-04-04T11:38:02.186Z,1.57
2019-04-04T11:40:30.602Z,1.40
2019-04-04T11:42:59.307Z,1.10
2019-04-04T11:45:27.739Z,1.10
2019-04-04T11:47:56.145Z,1.23
2019-04-04T11:50:24.559Z,1.17
2019-04-04T11:52:55.660Z,1.00
2019-04-04T11:55:24.085Z,1.00
2019-04-04T11:57:52.504Z,0.93
2019-04-04T12:00:34.698Z,0.80
2019-04-04T12:03:03.125Z,0.90
2019-04-04T12:05:32.434Z,1.10
2019-04-04T12:08:00.850Z,1.07
2019-04-04T12:10:29.276Z,1.00
2019-04-04T12:12:58.735Z,0.87
2019-04-04T12:15:27.598Z,0.87
2019-04-04T12:17:56.018Z,0.80
2019-04-04T12:20:24.443Z,0.77
2019-04-04T12:22:52.853Z,0.73
2019-04-04T12:25:21.274Z,0.80
2019-04-04T12:27:49.699Z,0.73
2019-04-04T12:30:20.711Z,0.70
2019-04-04T12:32:49.110Z,1.17
2019-04-04T12:35:17.533Z,0.90
2019-04-04T12:37:45.957Z,0.60
2019-04-04T12:40:20.930Z,0.53
2019-04-04T12:42:45.167Z,0.90
2019-04-04T12:45:14.237Z,0.90
2019-04-04T12:47:42.918Z,0.80
2019-04-04T12:50:11.878Z,0.90
2019-04-04T12:52:40.303Z,0.87
2019-04-04T12:55:09.348Z,0.90
2019-04-04T12:57:37.775Z,0.90
2019-04-04T13:00:08.854Z,0.87
2019-04-04T13:02:37.614Z,0.60
2019-04-04T13:05:12.482Z,0.70
2019-04-04T13:07:40.921Z,0.40
2019-04-04T13:10:11.730Z,0.57
2019-04-04T13:12:40.676Z,0.40
2019-04-04T13:15:10.312Z,0.50
2019-04-04T13:17:38.757Z,0.60
2019-04-04T13:20:08.029Z,0.70
2019-04-04T13:22:36.482Z,0.53
2019-04-04T13:25:07.168Z,0.67
2019-04-04T13:27:35.638Z,0.70
2019-04-04T13:30:11.645Z,0.60
2019-04-04T13:32:40.069Z,0.60
2019-04-04T13:35:09.456Z,0.60
2019-04-04T13:37:37.988Z,0.80
2019-04-04T13:40:07.190Z,0.60
2019-04-04T13:42:35.640Z,0.60
2019-04-04T13:45:06.134Z,0.70
2019-04-04T13:47:38.087Z,0.70
2019-04-04T13:50:11.995Z,0.80
2019-04-04T13:52:39.451Z,0.70
2019-04-04T13:55:08.158Z,0.70
2019-04-04T13:57:39.161Z,0.70
2019-04-04T14:00:09.034Z,0.73
2019-04-04T14:02:37.475Z,1.20
2019-04-04T14:05:10.052Z,0.90
2019-04-04T14:07:38.582Z,0.80
2019-04-04T14:10:10.626Z,1.03
2019-04-04T14:12:39.075Z,0.90
2019-04-04T14:15:09.850Z,0.90
2019-04-04T14:17:38.367Z,1.10
2019-04-04T14:20:09.089Z,1.17
2019-04-04T14:22:37.537Z,1.30
2019-04-04T14:25:06.738Z,1.43
2019-04-04T14:27:35.555Z,1.47
2019-04-04T14:30:07.207Z,1.20
2019-04-04T14:32:35.656Z,1.40
2019-04-04T14:35:06.343Z,1.40
2019-04-04T14:37:34.775Z,1.37
2019-04-04T14:40:04.555Z,1.60
2019-04-04T14:42:32.991Z,1.27
2019-04-04T14:45:02.190Z,1.30
2019-04-04T14:47:33.195Z,1.50
2019-04-04T14:50:04.540Z,1.23
2019-04-04T14:52:31.831Z,1.20
2019-04-04T14:55:00.290Z,1.10
2019-04-04T14:57:28.733Z,1.10
2019-04-04T14:59:57.215Z,1.17
2019-04-04T15:02:25.986Z,0.90
2019-04-04T15:04:54.528Z,0.93
2019-04-04T15:07:23.036Z,0.60
2019-04-04T15:09:51.551Z,0.60
2019-04-04T15:12:20.020Z,0.60
2019-04-04T15:14:48.476Z,0.70
2019-04-04T15:17:16.942Z,0.50
2019-04-04T15:19:45.399Z,0.50
2019-04-04T15:22:13.867Z,0.60
2019-04-04T15:24:42.307Z,0.50
2019-04-04T15:27:10.851Z,0.50
2019-04-04T15:29:39.303Z,0.50
2019-04-04T15:32:07.760Z,0.70
2019-04-04T15:34:45.086Z,0.70
2019-04-04T15:37:13.541Z,0.77
2019-04-04T15:39:41.998Z,0.90
2019-04-04T15:42:10.459Z,0.80
2019-04-04T15:44:39.229Z,1.00
2019-04-04T15:47:08.005Z,0.90
2019-04-04T15:49:40.538Z,1.00
2019-04-04T15:52:09.016Z,1.00
2019-04-04T15:54:37.475Z,1.20
2019-04-04T15:57:10.188Z,1.40
2019-04-04T15:59:40.395Z,1.20
2019-04-04T16:02:08.862Z,1.70
2019-04-04T16:04:37.630Z,1.33
2019-04-04T16:07:06.907Z,1.40
2019-04-04T16:09:38.908Z,2.80
2019-04-04T16:12:07.416Z,3.03
2019-04-04T16:14:35.945Z,1.20
2019-04-04T16:17:04.436Z,1.30
2019-04-04T16:19:32.897Z,1.20
2019-04-04T16:22:01.364Z,1.27
2019-04-04T16:24:29.802Z,1.60
2019-04-04T16:26:58.326Z,1.80
2019-04-04T16:29:26.763Z,2.03
2019-04-04T16:31:55.213Z,1.67
2019-04-04T16:34:23.659Z,1.30
2019-04-04T16:36:52.107Z,1.70
2019-04-04T16:39:20.587Z,2.00
2019-04-04T16:42:01.206Z,1.53
2019-04-04T16:44:19.193Z,1.70
2019-04-04T16:46:48.884Z,1.70
2019-04-04T16:49:17.617Z,1.70
2019-04-04T16:51:46.109Z,1.80
2019-04-04T16:54:14.559Z,1.90
2019-04-04T16:56:45.866Z,1.90
2019-04-04T16:59:14.462Z,2.10
2019-04-04T17:01:42.997Z,1.87
2019-04-04T17:04:11.552Z,2.20
2019-04-04T17:06:40.003Z,2.23
2019-04-04T17:09:08.731Z,2.40
2019-04-04T17:11:37.170Z,2.40
2019-04-04T17:14:05.724Z,2.10
2019-04-04T17:16:35.823Z,2.30
2019-04-04T17:19:04.445Z,2.33
2019-04-04T17:21:32.901Z,2.60
2019-04-04T17:24:01.357Z,2.37
2019-04-04T17:26:29.793Z,2.40
2019-04-04T17:28:58.267Z,2.40
2019-04-04T17:31:27.251Z,2.80
2019-04-04T17:33:56.221Z,2.87
2019-04-04T17:36:24.888Z,2.67
2019-04-04T17:38:55.111Z,2.70
2019-04-04T17:41:24.329Z,2.80
2019-04-04T17:43:52.859Z,2.90
2019-04-04T17:46:22.003Z,2.93
2019-04-04T17:48:50.579Z,3.00
2019-04-04T17:51:19.166Z,3.57
2019-04-04T17:53:48.002Z,2.93
2019-04-04T17:56:16.792Z,2.87
2019-04-04T17:58:45.343Z,3.20
2019-04-04T18:01:13.790Z,3.03
2019-04-04T18:03:42.270Z,3.37
2019-04-04T18:06:11.055Z,3.30
2019-04-04T18:08:39.832Z,4.67
2019-04-04T18:11:08.286Z,2.93
2019-04-04T18:13:36.739Z,3.00
2019-04-04T18:16:05.445Z,3.43
2019-04-04T18:18:33.898Z,3.30
2019-04-04T18:21:02.370Z,3.20
2019-04-04T18:23:30.838Z,4.47
2019-04-04T18:25:59.291Z,3.80
2019-04-04T18:28:27.751Z,3.63
2019-04-04T18:30:56.205Z,3.60
2019-04-04T18:33:25.095Z,3.63
2019-04-04T18:35:54.302Z,4.47
2019-04-04T18:38:23.035Z,4.20
2019-04-04T18:40:51.492Z,3.43
2019-04-04T18:43:19.945Z,3.53
2019-04-04T18:45:48.495Z,4.20
2019-04-04T18:48:17.251Z,3.17
2019-04-04T18:50:45.675Z,3.47
2019-04-04T18:53:14.119Z,3.10
2019-04-04T18:55:42.599Z,3.47
2019-04-04T18:58:11.062Z,3.90
2019-04-04T19:00:39.498Z,3.50
2019-04-04T19:03:07.931Z,3.60
2019-04-04T19:05:36.403Z,3.90
2019-04-04T19:08:14.967Z,4.00
2019-04-04T19:10:43.430Z,3.90
2019-04-04T19:13:11.904Z,4.07
2019-04-04T19:15:40.407Z,3.97
2019-04-04T19:18:08.925Z,3.93
2019-04-04T19:20:37.378Z,4.40
2019-04-04T19:23:05.901Z,5.07
2019-04-04T19:25:34.348Z,5.07
2019-04-04T19:28:02.782Z,3.90
2019-04-04T19:30:31.245Z,4.53
2019-04-04T19:32:59.691Z,4.40
2019-04-04T19:35:28.140Z,4.53
2019-04-04T19:38:00.365Z,4.40
2019-04-04T19:40:27.079Z,4.80
2019-04-04T19:43:01.344Z,4.53
2019-04-04T19:45:29.833Z,4.80
2019-04-04T19:47:58.468Z,5.77
2019-04-04T19:50:26.969Z,8.60
2019-04-04T19:52:55.555Z,4.93
2019-04-04T19:55:24.086Z,9.73
2019-04-04T19:57:59.490Z,10.30
2019-04-04T20:00:27.941Z,5.23
2019-04-04T20:02:56.408Z,7.03
2019-04-04T20:05:24.866Z,5.70
2019-04-04T20:07:53.311Z,5.50
2019-04-04T20:10:21.780Z,4.87
2019-04-04T20:13:03.398Z,5.00
2019-04-04T20:15:31.843Z,5.03
2019-04-04T20:18:08.026Z,5.10
2019-04-04T20:20:36.485Z,4.63
2019-04-04T20:23:05.040Z,4.87
2019-04-04T20:25:33.519Z,4.43
2019-04-04T20:28:01.972Z,4.23
2019-04-04T20:30:39.018Z,7.37
2019-04-04T20:33:08.811Z,5.73
2019-04-04T20:35:37.342Z,8.77
2019-04-04T20:38:05.975Z,8.87
2019-04-04T20:40:34.414Z,8.40
2019-04-04T20:43:02.855Z,6.47
2019-04-04T20:45:31.296Z,7.10
2019-04-04T20:47:59.841Z,5.17
2019-04-04T20:50:28.294Z,5.43
2019-04-04T20:52:57.178Z,6.63
2019-04-04T20:55:25.669Z,6.83
2019-04-04T20:57:54.490Z,5.00
2019-04-04T21:00:22.932Z,4.47
2019-04-04T21:02:51.390Z,4.53
2019-04-04T21:05:20.134Z,5.03
2019-04-04T21:07:48.578Z,4.93
2019-04-04T21:10:17.036Z,4.47
2019-04-04T21:12:45.565Z,4.70
2019-04-04T21:15:14.158Z,5.20
2019-04-04T21:17:42.607Z,5.27
2019-04-04T21:20:11.036Z,5.23
2019-04-04T21:22:39.501Z,4.43
2019-04-04T21:25:08.118Z,4.93
2019-04-04T21:27:36.578Z,4.77
2019-04-04T21:30:07.052Z,5.13
2019-04-04T21:32:35.502Z,4.90
2019-04-04T21:35:08.745Z,9.00
2019-04-04T21:37:37.236Z,13.10
2019-04-04T21:40:06.432Z,8.37
2019-04-04T21:42:35.443Z,5.83
2019-04-04T21:45:07.384Z,6.63
2019-04-04T21:47:36.112Z,6.63
2019-04-04T21:50:06.289Z,6.10
2019-04-04T21:52:34.732Z,5.67
2019-04-04T21:55:03.555Z,5.83
2019-04-04T21:57:32.058Z,5.60
2019-04-04T22:00:00.489Z,5.33
2019-04-04T22:02:29.201Z,5.70
2019-04-04T22:04:57.669Z,6.33
2019-04-04T22:07:26.319Z,5.37
2019-04-04T22:09:54.754Z,6.20
2019-04-04T22:12:23.516Z,6.30
2019-04-04T22:14:51.976Z,6.83
2019-04-04T22:17:20.432Z,7.50
2019-04-04T22:19:48.877Z,7.40
2019-04-04T22:22:17.315Z,6.57
2019-04-04T22:24:45.790Z,6.80
2019-04-04T22:27:14.233Z,7.13
2019-04-04T22:29:42.666Z,6.83
2019-04-04T22:32:11.109Z,7.07
2019-04-04T22:34:39.555Z,7.77
2019-04-04T22:37:08.031Z,6.07
2019-04-04T22:39:36.814Z,6.90
2019-04-04T22:42:05.351Z,6.63
2019-04-04T22:44:35.149Z,6.57
2019-04-04T22:47:04.219Z,7.00
2019-04-04T22:49:33.003Z,6.57
2019-04-04T22:52:01.463Z,7.23
2019-04-04T22:54:29.899Z,6.60
2019-04-04T22:56:58.631Z,6.60
2019-04-04T22:59:27.098Z,6.80
2019-04-04T23:01:55.526Z,6.83
2019-04-04T23:04:23.970Z,6.43
2019-04-04T23:06:52.410Z,6.30
2019-04-04T23:09:20.910Z,5.90
2019-04-04T23:11:49.329Z,6.00
2019-04-04T23:14:17.773Z,6.20
2019-04-04T23:16:46.214Z,6.20
2019-04-04T23:19:14.702Z,5.60
2019-04-04T23:21:43.140Z,5.80
2019-04-04T23:24:11.750Z,5.30
2019-04-04T23:26:40.575Z,6.37
2019-04-04T23:29:09.018Z,6.07
2019-04-04T23:31:37.485Z,5.90
2019-04-04T23:34:05.947Z,5.37
2019-04-04T23:36:35.515Z,5.47
2019-04-04T23:39:07.553Z,5.27
2019-04-04T23:41:35.978Z,5.90
2019-04-04T23:44:04.590Z,6.33
2019-04-04T23:46:33.049Z,6.20
2019-04-04T23:49:01.506Z,5.47
2019-04-04T23:51:29.947Z,6.03
2019-04-04T23:53:58.408Z,6.50
2019-04-04T23:56:27.148Z,5.60
2019-04-04T23:58:55.594Z,6.47
